createdAt,value
2019-04-29T00:00:01.445Z,10.04
2019-04-29T00:02:35.610Z,10.04
2019-04-29T00:05:07.494Z,10.04
2019-04-29T00:07:38.402Z,10.09
2019-04-29T00:10:11.281Z,10.08
2019-04-29T00:12:42.244Z,10.10
2019-04-29T00:15:17.592Z,10.10
2019-04-29T00:17:53.100Z,10.12
2019-04-29T00:20:28.042Z,10.14
2019-04-29T00:22:58.627Z,10.13
2019-04-29T00:25:29.517Z,10.14
2019-04-29T00:28:00.490Z,10.14
2019-04-29T00:30:31.407Z,10.14
2019-04-29T00:33:02.144Z,10.16
2019-04-29T00:35:33.391Z,10.17
2019-04-29T00:38:12.094Z,10.19
2019-04-29T00:40:47.568Z,10.21
2019-04-29T00:43:20.168Z,10.19
2019-04-29T00:45:50.820Z,10.20
2019-04-29T00:48:21.679Z,10.21
2019-04-29T00:50:52.683Z,10.21
2019-04-29T00:53:23.733Z,10.23
2019-04-29T00:55:54.403Z,10.23
2019-04-29T00:58:25.691Z,10.23
2019-04-29T01:00:56.706Z,10.27
2019-04-29T01:03:27.466Z,10.23
2019-04-29T01:05:58.193Z,10.24
2019-04-29T01:08:28.950Z,10.24
2019-04-29T01:10:59.570Z,10.26
2019-04-29T01:13:30.400Z,10.26
2019-04-29T01:16:01.338Z,10.22
2019-04-29T01:18:31.957Z,10.23
2019-04-29T01:21:04.003Z,10.24
2019-04-29T01:23:34.614Z,10.24
2019-04-29T01:26:22.516Z,10.20
2019-04-29T01:28:55.353Z,10.21
2019-04-29T01:31:27.646Z,10.23
2019-04-29T01:34:00.127Z,10.21
2019-04-29T01:36:34.093Z,10.21
2019-04-29T01:39:06.467Z,10.24
2019-04-29T01:41:45.574Z,10.24
2019-04-29T01:44:18.294Z,10.21
2019-04-29T01:46:50.353Z,10.18
2019-04-29T01:49:21.112Z,10.21
2019-04-29T01:51:52.795Z,10.22
2019-04-29T01:54:23.466Z,10.22
2019-04-29T01:56:54.239Z,10.21
2019-04-29T01:59:24.900Z,10.20
2019-04-29T02:01:55.936Z,10.20
2019-04-29T02:04:26.838Z,10.22
2019-04-29T02:06:57.402Z,10.22
2019-04-29T02:09:35.994Z,10.23
2019-04-29T02:12:06.931Z,10.21
2019-04-29T02:14:38.727Z,10.24
2019-04-29T02:17:10.114Z,10.23
2019-04-29T02:19:41.028Z,10.29
2019-04-29T02:22:16.101Z,10.26
2019-04-29T02:24:55.612Z,10.30
2019-04-29T02:27:26.278Z,10.30
2019-04-29T02:29:57.138Z,10.28
2019-04-29T02:32:27.911Z,10.28
2019-04-29T02:34:58.611Z,10.28
2019-04-29T02:37:30.938Z,10.30
2019-04-29T02:40:03.643Z,10.33
2019-04-29T02:42:38.739Z,10.34
2019-04-29T02:45:11.584Z,10.33
2019-04-29T02:47:42.606Z,10.34
2019-04-29T02:50:14.402Z,10.35
2019-04-29T02:52:45.139Z,10.35
2019-04-29T02:55:18.025Z,10.33
2019-04-29T02:57:50.536Z,10.34
2019-04-29T03:04:06.684Z,10.33
2019-04-29T03:06:37.421Z,10.32
2019-04-29T03:09:08.365Z,10.29
2019-04-29T03:11:39.130Z,10.29
2019-04-29T03:14:09.842Z,10.30
2019-04-29T03:16:40.458Z,10.27
2019-04-29T03:19:28.163Z,10.27
2019-04-29T03:22:00.427Z,10.29
2019-04-29T03:24:30.985Z,10.28
2019-04-29T03:27:01.642Z,10.29
2019-04-29T03:29:32.523Z,10.26
2019-04-29T03:32:03.301Z,10.26
2019-04-29T03:34:34.191Z,10.23
2019-04-29T03:37:04.889Z,10.21
2019-04-29T03:39:35.758Z,10.25
2019-04-29T03:42:07.533Z,10.23
2019-04-29T03:44:38.656Z,10.23
2019-04-29T03:47:09.367Z,10.26
